Terminal Aerodrome Forecast
Issued by NWS Topeka, KS

Home | Current Version | Previous Version | Text Only | Print | Product List | Glossary Off
Versions: 1 2 3 4 5 6 7 8 9 10 11 12 13 14 15 16 17 18 19 20 21

000
FTUS43 KTOP 281100
TAFTOP
TAF
KTOP 281138Z 2812/2912 22007KT 4SM -RA BR VCTS BKN070CB
     FM281400 13006KT 6SM -RA BR BKN100
     FM281700 15010KT P6SM BKN150
     FM290600 15009KT P6SM VCTS SCT040CB=

USA.gov is the U.S. government's official web portal to all federal, state and local government web resources and services.